Time,TemperatureF,DewpointF,PressureIn,WindDirection,WindDirectionDegrees,WindSpeedMPH,WindSpeedGustMPH,Humidity,HourlyPrecipIn,Conditions,Clouds,dailyrainin,SoftwareType,DateUTC
2013-02-10 00:01:00,21.0,16.0,-100.00,NE,54,3.0,5.0,80,-99.99,,,-99.99,,2013-02-10 08:01:00,
2013-02-10 00:11:00,21.0,16.0,-100.00,NE,54,3.0,5.0,80,-99.99,,,-99.99,,2013-02-10 08:11:00,
2013-02-10 00:21:00,20.0,15.0,-100.00,NNW,342,2.0,6.0,80,-99.99,,,-99.99,,2013-02-10 08:21:00,
2013-02-10 00:32:00,20.0,15.0,-100.00,NNW,342,2.0,6.0,80,-99.99,,,-99.99,,2013-02-10 08:32:00,
2013-02-10 00:43:00,20.0,15.0,-100.00,SSW,193,1.0,3.0,83,-99.99,,,-99.99,,2013-02-10 08:43:00,
2013-02-10 00:52:00,20.0,15.0,-100.00,SSW,193,1.0,3.0,83,-99.99,,,-99.99,,2013-02-10 08:52:00,
2013-02-10 01:02:00,19.0,14.0,-100.00,ESE,110,3.0,6.0,81,-99.99,,,-99.99,,2013-02-10 09:02:00,
2013-02-10 01:11:00,19.0,14.0,-100.00,ESE,110,3.0,6.0,81,-99.99,,,-99.99,,2013-02-10 09:11:00,
2013-02-10 01:21:00,19.0,15.0,-100.00,NNE,32,4.0,7.0,84,-99.99,,,-99.99,,2013-02-10 09:21:00,
2013-02-10 01:31:00,19.0,15.0,-100.00,NNE,32,4.0,7.0,84,-99.99,,,-99.99,,2013-02-10 09:31:00,
2013-02-10 01:41:00,19.0,15.0,-100.00,NW,309,3.0,6.0,85,-99.99,,,-99.99,,2013-02-10 09:41:00,
2013-02-10 01:52:00,19.0,15.0,-100.00,NW,309,3.0,6.0,85,-99.99,,,-99.99,,2013-02-10 09:52:00,
2013-02-10 02:01:00,19.0,14.0,-100.00,SSW,196,0.0,4.0,81,-99.99,,,-99.99,,2013-02-10 10:01:00,
2013-02-10 02:11:00,19.0,14.0,-100.00,SSW,196,0.0,4.0,81,-99.99,,,-99.99,,2013-02-10 10:11:00,
2013-02-10 02:21:00,20.0,15.0,-100.00,West,278,1.0,4.0,81,-99.99,,,-99.99,,2013-02-10 10:21:00,
2013-02-10 02:31:00,20.0,15.0,-100.00,West,278,1.0,4.0,81,-99.99,,,-99.99,,2013-02-10 10:31:00,
2013-02-10 02:41:00,18.0,14.0,-100.00,WNW,299,0.0,3.0,84,-99.99,,,-99.99,,2013-02-10 10:41:00,
2013-02-10 02:52:00,18.0,14.0,-100.00,WNW,299,0.0,3.0,84,-99.99,,,-99.99,,2013-02-10 10:52:00,
2013-02-10 03:01:00,18.0,15.0,-100.00,NE,47,0.0,2.0,87,-99.99,,,-99.99,,2013-02-10 11:01:00,
2013-02-10 03:11:00,18.0,15.0,-100.00,NE,47,0.0,2.0,87,-99.99,,,-99.99,,2013-02-10 11:11:00,
2013-02-10 03:21:00,18.0,14.0,-100.00,East,100,2.0,4.0,83,-99.99,,,-99.99,,2013-02-10 11:21:00,
2013-02-10 03:32:00,18.0,14.0,-100.00,East,100,2.0,4.0,83,-99.99,,,-99.99,,2013-02-10 11:32:00,
2013-02-10 03:42:00,19.0,14.0,-100.00,ESE,104,3.0,5.0,82,-99.99,,,-99.99,,2013-02-10 11:42:00,
2013-02-10 03:52:00,19.0,14.0,-100.00,ESE,104,3.0,5.0,82,-99.99,,,-99.99,,2013-02-10 11:52:00,
2013-02-10 04:01:00,17.0,14.0,-100.00,ESE,103,5.0,7.0,86,-99.99,,,-99.99,,2013-02-10 12:01:00,
2013-02-10 04:12:00,17.0,14.0,-100.00,ESE,103,5.0,7.0,86,-99.99,,,-99.99,,2013-02-10 12:12:00,
2013-02-10 04:21:00,17.0,14.0,-100.00,SE,130,2.0,4.0,87,-99.99,,,-99.99,,2013-02-10 12:21:00,
2013-02-10 04:32:00,17.0,14.0,-100.00,SE,130,2.0,4.0,87,-99.99,,,-99.99,,2013-02-10 12:32:00,
2013-02-10 04:41:00,15.0,12.0,-100.00,South,186,1.0,3.0,88,-99.99,,,-99.99,,2013-02-10 12:41:00,
2013-02-10 04:52:00,15.0,12.0,-100.00,South,186,1.0,3.0,88,-99.99,,,-99.99,,2013-02-10 12:52:00,
2013-02-10 05:02:00,17.0,13.0,-100.00,East,97,1.0,2.0,86,-99.99,,,-99.99,,2013-02-10 13:02:00,
2013-02-10 05:11:00,17.0,13.0,-100.00,East,97,1.0,2.0,86,-99.99,,,-99.99,,2013-02-10 13:11:00,
2013-02-10 05:21:00,18.0,13.0,-100.00,SE,131,1.0,4.0,82,-99.99,,,-99.99,,2013-02-10 13:21:00,
2013-02-10 05:31:00,18.0,13.0,-100.00,SE,131,1.0,4.0,82,-99.99,,,-99.99,,2013-02-10 13:31:00,
2013-02-10 05:41:00,15.0,12.0,-100.00,SE,126,2.0,3.0,88,-99.99,,,-99.99,,2013-02-10 13:41:00,
2013-02-10 05:52:00,15.0,12.0,-100.00,SE,126,2.0,3.0,88,-99.99,,,-99.99,,2013-02-10 13:52:00,
2013-02-10 06:01:00,16.0,13.0,-100.00,ESE,113,1.0,3.0,87,-99.99,,,-99.99,,2013-02-10 14:01:00,
2013-02-10 06:11:00,16.0,13.0,-100.00,ESE,113,1.0,3.0,87,-99.99,,,-99.99,,2013-02-10 14:11:00,
2013-02-10 06:21:00,16.0,12.0,-100.00,East,80,1.0,2.0,87,-99.99,,,-99.99,,2013-02-10 14:21:00,
2013-02-10 06:31:00,16.0,12.0,-100.00,East,80,1.0,2.0,87,-99.99,,,-99.99,,2013-02-10 14:31:00,
2013-02-10 06:41:00,15.0,13.0,-100.00,South,188,1.0,2.0,89,-99.99,,,-99.99,,2013-02-10 14:41:00,
2013-02-10 06:52:00,15.0,13.0,-100.00,South,188,1.0,2.0,89,-99.99,,,-99.99,,2013-02-10 14:52:00,
2013-02-10 07:01:00,14.0,12.0,-100.00,SW,222,0.0,2.0,89,-99.99,,,-99.99,,2013-02-10 15:01:00,
2013-02-10 07:11:00,14.0,12.0,-100.00,SW,222,0.0,2.0,89,-99.99,,,-99.99,,2013-02-10 15:11:00,
2013-02-10 07:21:00,14.0,12.0,-100.00,WSW,247,0.0,2.0,90,-99.99,,,-99.99,,2013-02-10 15:21:00,
2013-02-10 07:31:00,14.0,12.0,-100.00,WSW,247,0.0,2.0,90,-99.99,,,-99.99,,2013-02-10 15:31:00,
2013-02-10 07:41:00,16.0,14.0,-100.00,NE,45,0.0,1.0,93,-99.99,,,-99.99,,2013-02-10 15:41:00,
2013-02-10 07:52:00,16.0,14.0,-100.00,NE,45,0.0,1.0,93,-99.99,,,-99.99,,2013-02-10 15:52:00,
2013-02-10 08:01:00,16.0,12.0,-100.00,North,6,0.0,2.0,87,-99.99,,,-99.99,,2013-02-10 16:01:00,
2013-02-10 08:11:00,16.0,12.0,-100.00,North,6,0.0,2.0,87,-99.99,,,-99.99,,2013-02-10 16:11:00,
2013-02-10 08:21:00,18.0,14.0,-100.00,East,85,0.0,1.0,85,-99.99,,,-99.99,,2013-02-10 16:21:00,
2013-02-10 08:32:00,18.0,14.0,-100.00,East,85,0.0,1.0,85,-99.99,,,-99.99,,2013-02-10 16:32:00,
2013-02-10 08:42:00,22.0,17.0,-100.00,East,89,0.0,1.0,82,-99.99,,,-99.99,,2013-02-10 16:42:00,
2013-02-10 08:52:00,22.0,17.0,-100.00,East,89,0.0,1.0,82,-99.99,,,-99.99,,2013-02-10 16:52:00,
2013-02-10 09:01:00,26.0,17.0,-100.00,ESE,113,0.0,1.0,67,-99.99,,,-99.99,,2013-02-10 17:01:00,
2013-02-10 09:11:00,26.0,17.0,-100.00,ESE,113,0.0,1.0,67,-99.99,,,-99.99,,2013-02-10 17:11:00,
2013-02-10 09:21:00,26.0,17.0,-100.00,West,263,0.0,1.0,69,-99.99,,,-99.99,,2013-02-10 17:21:00,
2013-02-10 09:32:00,26.0,17.0,-100.00,West,263,0.0,1.0,69,-99.99,,,-99.99,,2013-02-10 17:32:00,
2013-02-10 09:42:00,25.0,18.0,-100.00,South,189,0.0,2.0,73,-99.99,,,-99.99,,2013-02-10 17:42:00,
2013-02-10 09:52:00,25.0,18.0,-100.00,South,189,0.0,2.0,73,-99.99,,,-99.99,,2013-02-10 17:52:00,
2013-02-10 10:01:00,25.0,19.0,-100.00,WNW,289,4.0,6.0,77,-99.99,,,-99.99,,2013-02-10 18:01:00,
2013-02-10 10:11:00,25.0,19.0,-100.00,WNW,289,4.0,6.0,77,-99.99,,,-99.99,,2013-02-10 18:11:00,
2013-02-10 10:21:00,28.0,19.0,-100.00,North,353,1.0,3.0,70,-99.99,,,-99.99,,2013-02-10 18:21:00,
2013-02-10 10:32:00,28.0,19.0,-100.00,North,353,1.0,3.0,70,-99.99,,,-99.99,,2013-02-10 18:32:00,
2013-02-10 10:42:00,29.0,20.0,-100.00,NNW,333,2.0,6.0,70,-99.99,,,-99.99,,2013-02-10 18:42:00,
2013-02-10 10:52:00,29.0,20.0,-100.00,NNW,333,2.0,6.0,70,-99.99,,,-99.99,,2013-02-10 18:52:00,
2013-02-10 11:01:00,30.0,19.0,-100.00,NNW,333,4.0,8.0,63,-99.99,,,-99.99,,2013-02-10 19:01:00,
2013-02-10 11:11:00,30.0,19.0,-100.00,NNW,333,4.0,8.0,63,-99.99,,,-99.99,,2013-02-10 19:11:00,
2013-02-10 11:21:00,34.0,21.0,-100.00,NW,318,9.0,13.0,59,-99.99,,,-99.99,,2013-02-10 19:21:00,
2013-02-10 11:32:00,34.0,21.0,-100.00,NW,318,9.0,13.0,59,-99.99,,,-99.99,,2013-02-10 19:32:00,
2013-02-10 11:42:00,34.0,21.0,-100.00,NW,318,9.0,14.0,57,-99.99,,,-99.99,,2013-02-10 19:42:00,
2013-02-10 11:52:00,34.0,21.0,-100.00,NW,318,9.0,14.0,57,-99.99,,,-99.99,,2013-02-10 19:52:00,
2013-02-10 12:01:00,35.0,20.0,-100.00,NW,320,9.0,19.0,55,-99.99,,,-99.99,,2013-02-10 20:01:00,
2013-02-10 12:11:00,35.0,20.0,-100.00,NW,320,9.0,19.0,55,-99.99,,,-99.99,,2013-02-10 20:11:00,
2013-02-10 12:21:00,35.0,19.0,-100.00,NW,311,10.0,18.0,52,-99.99,,,-99.99,,2013-02-10 20:21:00,
2013-02-10 12:32:00,35.0,19.0,-100.00,NW,311,10.0,18.0,52,-99.99,,,-99.99,,2013-02-10 20:32:00,
2013-02-10 12:42:00,36.0,18.0,-100.00,WNW,298,7.0,13.0,48,-99.99,,,-99.99,,2013-02-10 20:42:00,
2013-02-10 12:52:00,36.0,18.0,-100.00,WNW,298,7.0,13.0,48,-99.99,,,-99.99,,2013-02-10 20:52:00,
2013-02-10 13:02:00,37.0,19.0,-100.00,NNW,328,8.0,13.0,48,-99.99,,,-99.99,,2013-02-10 21:02:00,
2013-02-10 13:11:00,37.0,19.0,-100.00,NNW,328,8.0,13.0,48,-99.99,,,-99.99,,2013-02-10 21:11:00,
2013-02-10 13:21:00,37.0,19.0,-100.00,NNW,332,6.0,14.0,47,-99.99,,,-99.99,,2013-02-10 21:21:00,
2013-02-10 13:32:00,37.0,19.0,-100.00,NNW,332,6.0,14.0,47,-99.99,,,-99.99,,2013-02-10 21:32:00,
2013-02-10 13:42:00,38.0,19.0,-100.00,WNW,296,9.0,16.0,46,-99.99,,,-99.99,,2013-02-10 21:42:00,
2013-02-10 13:52:00,38.0,19.0,-100.00,WNW,296,9.0,16.0,46,-99.99,,,-99.99,,2013-02-10 21:52:00,
2013-02-10 14:01:00,38.0,18.0,-100.00,NNW,330,6.0,12.0,44,-99.99,,,-99.99,,2013-02-10 22:01:00,
2013-02-10 14:11:00,38.0,18.0,-100.00,NNW,330,6.0,12.0,44,-99.99,,,-99.99,,2013-02-10 22:11:00,
2013-02-10 14:21:00,39.0,18.0,-100.00,West,280,6.0,11.0,42,-99.99,,,-99.99,,2013-02-10 22:21:00,
2013-02-10 14:32:00,39.0,18.0,-100.00,West,280,6.0,11.0,42,-99.99,,,-99.99,,2013-02-10 22:32:00,
2013-02-10 14:42:00,38.0,16.0,-100.00,NW,326,9.0,16.0,39,-99.99,,,-99.99,,2013-02-10 22:42:00,
2013-02-10 14:52:00,38.0,16.0,-100.00,NW,326,9.0,16.0,39,-99.99,,,-99.99,,2013-02-10 22:52:00,
2013-02-10 15:01:00,39.0,15.0,-100.00,NW,323,10.0,17.0,37,-99.99,,,-99.99,,2013-02-10 23:01:00,
2013-02-10 15:11:00,39.0,15.0,-100.00,NW,323,10.0,17.0,37,-99.99,,,-99.99,,2013-02-10 23:11:00,
2013-02-10 15:21:00,39.0,16.0,-100.00,NW,315,12.0,17.0,39,-99.99,,,-99.99,,2013-02-10 23:21:00,
2013-02-10 15:32:00,39.0,16.0,-100.00,NW,315,12.0,17.0,39,-99.99,,,-99.99,,2013-02-10 23:32:00,
2013-02-10 15:42:00,40.0,15.0,-100.00,NW,316,9.0,14.0,36,-99.99,,,-99.99,,2013-02-10 23:42:00,
2013-02-10 15:52:00,40.0,15.0,-100.00,NW,316,9.0,14.0,36,-99.99,,,-99.99,,2013-02-10 23:52:00,
2013-02-10 16:01:00,38.0,15.0,-100.00,NW,319,8.0,15.0,38,-99.99,,,-99.99,,2013-02-11 00:01:00,
2013-02-10 16:11:00,38.0,15.0,-100.00,NW,319,8.0,15.0,38,-99.99,,,-99.99,,2013-02-11 00:11:00,
2013-02-10 16:22:00,39.0,13.0,-100.00,NNW,343,11.0,17.0,34,-99.99,,,-99.99,,2013-02-11 00:22:00,
2013-02-10 16:32:00,39.0,13.0,-100.00,NNW,343,11.0,17.0,34,-99.99,,,-99.99,,2013-02-11 00:32:00,
2013-02-10 16:42:00,39.0,13.0,-100.00,NNW,330,9.0,15.0,34,-99.99,,,-99.99,,2013-02-11 00:42:00,
2013-02-10 16:52:00,39.0,13.0,-100.00,NNW,330,9.0,15.0,34,-99.99,,,-99.99,,2013-02-11 00:52:00,
2013-02-10 17:01:00,38.0,15.0,-100.00,NNW,333,8.0,12.0,38,-99.99,,,-99.99,,2013-02-11 01:01:00,
2013-02-10 17:11:00,38.0,15.0,-100.00,NNW,333,8.0,12.0,38,-99.99,,,-99.99,,2013-02-11 01:11:00,
2013-02-10 17:21:00,37.0,16.0,-100.00,NW,326,7.0,10.0,41,-99.99,,,-99.99,,2013-02-11 01:21:00,
2013-02-10 17:32:00,37.0,16.0,-100.00,NW,326,7.0,10.0,41,-99.99,,,-99.99,,2013-02-11 01:32:00,
2013-02-10 17:41:00,37.0,15.0,-100.00,NNW,333,7.0,12.0,40,-99.99,,,-99.99,,2013-02-11 01:41:00,
2013-02-10 17:52:00,37.0,15.0,-100.00,NNW,333,7.0,12.0,40,-99.99,,,-99.99,,2013-02-11 01:52:00,
2013-02-10 18:01:00,35.0,16.0,-100.00,NW,325,6.0,9.0,44,-99.99,,,-99.99,,2013-02-11 02:01:00,
2013-02-10 18:11:00,35.0,16.0,-100.00,NW,325,6.0,9.0,44,-99.99,,,-99.99,,2013-02-11 02:11:00,
2013-02-10 18:21:00,33.0,17.0,-100.00,NNW,329,4.0,8.0,50,-99.99,,,-99.99,,2013-02-11 02:21:00,
2013-02-10 18:31:00,33.0,17.0,-100.00,NNW,329,4.0,8.0,50,-99.99,,,-99.99,,2013-02-11 02:31:00,
2013-02-10 18:42:00,32.0,17.0,-100.00,NW,318,4.0,6.0,52,-99.99,,,-99.99,,2013-02-11 02:42:00,
2013-02-10 18:52:00,32.0,17.0,-100.00,NW,318,4.0,6.0,52,-99.99,,,-99.99,,2013-02-11 02:52:00,
2013-02-10 19:01:00,31.0,15.0,-100.00,NW,325,3.0,5.0,52,-99.99,,,-99.99,,2013-02-11 03:01:00,
2013-02-10 19:11:00,31.0,15.0,-100.00,NW,325,3.0,5.0,52,-99.99,,,-99.99,,2013-02-11 03:11:00,
2013-02-10 19:21:00,32.0,14.0,-100.00,NNE,13,3.0,6.0,47,-99.99,,,-99.99,,2013-02-11 03:21:00,
2013-02-10 19:31:00,32.0,14.0,-100.00,NNE,13,3.0,6.0,47,-99.99,,,-99.99,,2013-02-11 03:31:00,
2013-02-10 19:41:00,28.0,16.0,-100.00,WNW,294,4.0,6.0,59,-99.99,,,-99.99,,2013-02-11 03:41:00,
2013-02-10 19:52:00,28.0,16.0,-100.00,WNW,294,4.0,6.0,59,-99.99,,,-99.99,,2013-02-11 03:52:00,
2013-02-10 20:01:00,29.0,17.0,-100.00,NW,326,3.0,5.0,59,-99.99,,,-99.99,,2013-02-11 04:01:00,
2013-02-10 20:11:00,29.0,17.0,-100.00,NW,326,3.0,5.0,59,-99.99,,,-99.99,,2013-02-11 04:11:00,
2013-02-10 20:21:00,28.0,15.0,-100.00,NNW,335,2.0,4.0,58,-99.99,,,-99.99,,2013-02-11 04:21:00,
2013-02-10 20:31:00,28.0,15.0,-100.00,NNW,335,2.0,4.0,58,-99.99,,,-99.99,,2013-02-11 04:31:00,
2013-02-10 20:42:00,29.0,15.0,-100.00,NNE,30,2.0,4.0,54,-99.99,,,-99.99,,2013-02-11 04:42:00,
2013-02-10 20:52:00,29.0,15.0,-100.00,NNE,30,2.0,4.0,54,-99.99,,,-99.99,,2013-02-11 04:52:00,
2013-02-10 21:01:00,25.0,15.0,-100.00,SSE,157,2.0,3.0,64,-99.99,,,-99.99,,2013-02-11 05:01:00,
2013-02-10 21:11:00,25.0,15.0,-100.00,SSE,157,2.0,3.0,64,-99.99,,,-99.99,,2013-02-11 05:11:00,
2013-02-10 21:22:00,25.0,14.0,-100.00,ESE,116,3.0,5.0,61,-99.99,,,-99.99,,2013-02-11 05:22:00,
2013-02-10 21:31:00,25.0,14.0,-100.00,ESE,116,3.0,5.0,61,-99.99,,,-99.99,,2013-02-11 05:31:00,
2013-02-10 21:41:00,23.0,15.0,-100.00,ESE,103,7.0,10.0,70,-99.99,,,-99.99,,2013-02-11 05:41:00,
2013-02-10 21:52:00,23.0,15.0,-100.00,ESE,103,7.0,10.0,70,-99.99,,,-99.99,,2013-02-11 05:52:00,
2013-02-10 22:01:00,24.0,15.0,-100.00,East,100,4.0,8.0,67,-99.99,,,-99.99,,2013-02-11 06:01:00,
2013-02-10 22:11:00,24.0,15.0,-100.00,East,100,4.0,8.0,67,-99.99,,,-99.99,,2013-02-11 06:11:00,
2013-02-10 22:21:00,27.0,14.0,-100.00,NE,34,0.0,2.0,58,-99.99,,,-99.99,,2013-02-11 06:21:00,
2013-02-10 22:32:00,27.0,14.0,-100.00,NE,34,0.0,2.0,58,-99.99,,,-99.99,,2013-02-11 06:32:00,
2013-02-10 22:42:00,29.0,14.0,-100.00,NE,51,1.0,2.0,53,-99.99,,,-99.99,,2013-02-11 06:42:00,
2013-02-10 22:52:00,29.0,14.0,-100.00,NE,51,1.0,2.0,53,-99.99,,,-99.99,,2013-02-11 06:52:00,
2013-02-10 23:01:00,30.0,13.0,-100.00,North,4,2.0,4.0,50,-99.99,,,-99.99,,2013-02-11 07:01:00,
2013-02-10 23:11:00,30.0,13.0,-100.00,North,4,2.0,4.0,50,-99.99,,,-99.99,,2013-02-11 07:11:00,
2013-02-10 23:21:00,26.0,14.0,-100.00,ENE,61,5.0,7.0,61,-99.99,,,-99.99,,2013-02-11 07:21:00,
2013-02-10 23:32:00,26.0,14.0,-100.00,ENE,61,5.0,7.0,61,-99.99,,,-99.99,,2013-02-11 07:32:00,
2013-02-10 23:41:00,21.0,15.0,-100.00,WSW,241,1.0,2.0,77,-99.99,,,-99.99,,2013-02-11 07:41:00,
2013-02-10 23:52:00,21.0,15.0,-100.00,WSW,241,1.0,2.0,77,-99.99,,,-99.99,,2013-02-11 07:52:00,